sensor_id;sensor_type;location;lat;lon;timestamp;temperature;humidity
51815;DHT22;37874;53.158;6.766;2023-04-25T00:02:13;18.70;52.00
51815;DHT22;37874;53.158;6.766;2023-04-25T00:04:40;18.60;52.30
51815;DHT22;37874;53.158;6.766;2023-04-25T00:07:06;18.60;52.20
51815;DHT22;37874;53.158;6.766;2023-04-25T00:09:32;18.60;52.20
51815;DHT22;37874;53.158;6.766;2023-04-25T00:11:57;18.60;52.10
51815;DHT22;37874;53.158;6.766;2023-04-25T00:14:23;18.60;52.10
51815;DHT22;37874;53.158;6.766;2023-04-25T00:16:48;18.60;52.30
51815;DHT22;37874;53.158;6.766;2023-04-25T00:19:17;18.60;52.00
51815;DHT22;37874;53.158;6.766;2023-04-25T00:21:42;18.60;52.30
51815;DHT22;37874;53.158;6.766;2023-04-25T00:24:08;18.60;52.10
51815;DHT22;37874;53.158;6.766;2023-04-25T00:26:34;18.60;52.20
51815;DHT22;37874;53.158;6.766;2023-04-25T00:29:01;18.60;51.80
51815;DHT22;37874;53.158;6.766;2023-04-25T00:31:27;18.80;52.40
51815;DHT22;37874;53.158;6.766;2023-04-25T00:33:52;18.70;52.30
51815;DHT22;37874;53.158;6.766;2023-04-25T00:36:18;18.60;52.00
51815;DHT22;37874;53.158;6.766;2023-04-25T00:38:44;18.60;52.20
51815;DHT22;37874;53.158;6.766;2023-04-25T00:41:10;18.60;51.90
51815;DHT22;37874;53.158;6.766;2023-04-25T00:43:36;18.60;52.10
51815;DHT22;37874;53.158;6.766;2023-04-25T00:46:03;18.60;52.40
51815;DHT22;37874;53.158;6.766;2023-04-25T00:48:28;18.60;52.00
51815;DHT22;37874;53.158;6.766;2023-04-25T00:50:57;18.60;51.80
51815;DHT22;37874;53.158;6.766;2023-04-25T00:53:24;18.60;52.00
51815;DHT22;37874;53.158;6.766;2023-04-25T00:55:51;18.60;52.20
51815;DHT22;37874;53.158;6.766;2023-04-25T00:58:17;18.60;52.10
51815;DHT22;37874;53.158;6.766;2023-04-25T01:00:47;18.60;52.10
51815;DHT22;37874;53.158;6.766;2023-04-25T01:03:14;18.50;52.10
51815;DHT22;37874;53.158;6.766;2023-04-25T01:05:42;18.50;52.20
51815;DHT22;37874;53.158;6.766;2023-04-25T01:08:08;18.50;52.00
51815;DHT22;37874;53.158;6.766;2023-04-25T01:10:33;18.50;52.00
51815;DHT22;37874;53.158;6.766;2023-04-25T01:12:59;18.50;52.10
51815;DHT22;37874;53.158;6.766;2023-04-25T01:15:25;18.50;52.30
51815;DHT22;37874;53.158;6.766;2023-04-25T01:17:50;18.50;52.20
51815;DHT22;37874;53.158;6.766;2023-04-25T01:20:16;18.50;52.20
51815;DHT22;37874;53.158;6.766;2023-04-25T01:22:42;18.50;52.40
51815;DHT22;37874;53.158;6.766;2023-04-25T05:27:15;18.00;51.70
51815;DHT22;37874;53.158;6.766;2023-04-25T05:29:41;18.00;51.90
51815;DHT22;37874;53.158;6.766;2023-04-25T05:32:07;18.00;52.10
51815;DHT22;37874;53.158;6.766;2023-04-25T05:34:33;18.10;52.00
51815;DHT22;37874;53.158;6.766;2023-04-25T05:36:59;18.10;52.00
51815;DHT22;37874;53.158;6.766;2023-04-25T05:39:25;18.10;52.10
51815;DHT22;37874;53.158;6.766;2023-04-25T05:41:50;18.10;51.60
51815;DHT22;37874;53.158;6.766;2023-04-25T05:44:16;18.10;52.10
51815;DHT22;37874;53.158;6.766;2023-04-25T05:46:42;18.10;51.90
51815;DHT22;37874;53.158;6.766;2023-04-25T05:49:07;18.10;51.90
51815;DHT22;37874;53.158;6.766;2023-04-25T05:51:33;18.10;52.10
51815;DHT22;37874;53.158;6.766;2023-04-25T05:53:58;18.00;51.90
51815;DHT22;37874;53.158;6.766;2023-04-25T05:56:24;18.10;51.70
51815;DHT22;37874;53.158;6.766;2023-04-25T05:58:50;18.10;51.40
51815;DHT22;37874;53.158;6.766;2023-04-25T06:01:15;18.10;51.60
51815;DHT22;37874;53.158;6.766;2023-04-25T06:03:41;18.10;51.60
51815;DHT22;37874;53.158;6.766;2023-04-25T06:06:08;18.00;51.50
51815;DHT22;37874;53.158;6.766;2023-04-25T06:08:34;18.10;51.60
51815;DHT22;37874;53.158;6.766;2023-04-25T06:11:00;18.00;52.50
51815;DHT22;37874;53.158;6.766;2023-04-25T06:13:26;18.10;51.40
51815;DHT22;37874;53.158;6.766;2023-04-25T06:15:51;18.10;51.20
51815;DHT22;37874;53.158;6.766;2023-04-25T06:18:17;18.00;51.30
51815;DHT22;37874;53.158;6.766;2023-04-25T06:20:42;18.10;51.60
51815;DHT22;37874;53.158;6.766;2023-04-25T06:23:08;18.00;51.50
51815;DHT22;37874;53.158;6.766;2023-04-25T06:25:33;18.00;51.50
51815;DHT22;37874;53.158;6.766;2023-04-25T06:27:59;18.10;51.70
51815;DHT22;37874;53.158;6.766;2023-04-25T06:30:25;18.10;51.40
51815;DHT22;37874;53.158;6.766;2023-04-25T06:32:52;18.20;51.10
51815;DHT22;37874;53.158;6.766;2023-04-25T06:35:18;18.00;51.40
51815;DHT22;37874;53.158;6.766;2023-04-25T06:37:44;18.00;51.50
51815;DHT22;37874;53.158;6.766;2023-04-25T06:40:10;18.10;51.60
51815;DHT22;37874;53.158;6.766;2023-04-25T06:42:36;18.00;51.50
51815;DHT22;37874;53.158;6.766;2023-04-25T06:45:02;18.10;51.30
51815;DHT22;37874;53.158;6.766;2023-04-25T06:47:28;18.10;51.10
51815;DHT22;37874;53.158;6.766;2023-04-25T06:49:53;18.00;51.10
51815;DHT22;37874;53.158;6.766;2023-04-25T06:52:19;18.00;51.30
51815;DHT22;37874;53.158;6.766;2023-04-25T06:54:44;18.00;51.30
51815;DHT22;37874;53.158;6.766;2023-04-25T06:57:10;18.10;51.00
51815;DHT22;37874;53.158;6.766;2023-04-25T06:59:36;18.10;51.00
51815;DHT22;37874;53.158;6.766;2023-04-25T07:02:02;18.00;50.70
51815;DHT22;37874;53.158;6.766;2023-04-25T07:04:27;18.10;50.70
51815;DHT22;37874;53.158;6.766;2023-04-25T07:06:53;18.10;50.90
51815;DHT22;37874;53.158;6.766;2023-04-25T07:09:18;18.20;50.90
51815;DHT22;37874;53.158;6.766;2023-04-25T07:11:44;18.10;50.90
51815;DHT22;37874;53.158;6.766;2023-04-25T07:14:10;18.10;50.90
51815;DHT22;37874;53.158;6.766;2023-04-25T07:16:35;18.10;50.80
51815;DHT22;37874;53.158;6.766;2023-04-25T07:19:01;18.10;50.50
51815;DHT22;37874;53.158;6.766;2023-04-25T07:21:27;18.10;51.00
51815;DHT22;37874;53.158;6.766;2023-04-25T07:23:52;18.10;51.20
51815;DHT22;37874;53.158;6.766;2023-04-25T07:26:18;18.20;51.60
51815;DHT22;37874;53.158;6.766;2023-04-25T07:28:43;18.20;50.50
51815;DHT22;37874;53.158;6.766;2023-04-25T07:31:09;18.20;51.10
51815;DHT22;37874;53.158;6.766;2023-04-25T07:33:35;18.20;51.10
51815;DHT22;37874;53.158;6.766;2023-04-25T07:36:00;18.10;50.60
51815;DHT22;37874;53.158;6.766;2023-04-25T07:38:26;18.20;51.00
51815;DHT22;37874;53.158;6.766;2023-04-25T07:40:52;18.20;51.00
51815;DHT22;37874;53.158;6.766;2023-04-25T07:43:17;18.20;51.00
51815;DHT22;37874;53.158;6.766;2023-04-25T07:45:44;18.20;51.20
51815;DHT22;37874;53.158;6.766;2023-04-25T07:48:09;18.20;50.70
51815;DHT22;37874;53.158;6.766;2023-04-25T07:50:35;18.30;50.20
51815;DHT22;37874;53.158;6.766;2023-04-25T07:53:01;18.30;50.10
51815;DHT22;37874;53.158;6.766;2023-04-25T07:55:27;18.30;50.20
51815;DHT22;37874;53.158;6.766;2023-04-25T07:57:53;18.30;51.00
51815;DHT22;37874;53.158;6.766;2023-04-25T08:00:19;18.00;49.70
51815;DHT22;37874;53.158;6.766;2023-04-25T08:02:45;18.30;50.00
51815;DHT22;37874;53.158;6.766;2023-04-25T08:05:11;18.30;49.90
51815;DHT22;37874;53.158;6.766;2023-04-25T08:07:40;17.70;49.70
51815;DHT22;37874;53.158;6.766;2023-04-25T08:10:07;18.30;50.10
51815;DHT22;37874;53.158;6.766;2023-04-25T08:12:32;18.40;49.80
51815;DHT22;37874;53.158;6.766;2023-04-25T08:14:58;18.30;49.80
51815;DHT22;37874;53.158;6.766;2023-04-25T08:17:24;18.30;49.90
51815;DHT22;37874;53.158;6.766;2023-04-25T08:19:49;18.30;50.10
51815;DHT22;37874;53.158;6.766;2023-04-25T08:22:15;18.40;50.40
51815;DHT22;37874;53.158;6.766;2023-04-25T08:24:41;18.40;50.50
51815;DHT22;37874;53.158;6.766;2023-04-25T08:27:07;18.40;50.40
51815;DHT22;37874;53.158;6.766;2023-04-25T08:29:33;18.40;50.20
51815;DHT22;37874;53.158;6.766;2023-04-25T08:31:59;18.40;50.10
51815;DHT22;37874;53.158;6.766;2023-04-25T08:34:25;18.40;50.30
51815;DHT22;37874;53.158;6.766;2023-04-25T08:36:51;18.40;50.20
51815;DHT22;37874;53.158;6.766;2023-04-25T08:39:17;18.30;50.20
51815;DHT22;37874;53.158;6.766;2023-04-25T08:41:43;18.40;50.40
51815;DHT22;37874;53.158;6.766;2023-04-25T08:44:10;18.40;50.30
51815;DHT22;37874;53.158;6.766;2023-04-25T08:46:38;18.40;50.40
51815;DHT22;37874;53.158;6.766;2023-04-25T08:49:08;18.40;50.30
51815;DHT22;37874;53.158;6.766;2023-04-25T08:51:44;18.40;50.20
51815;DHT22;37874;53.158;6.766;2023-04-25T08:54:11;18.40;49.80
51815;DHT22;37874;53.158;6.766;2023-04-25T08:56:44;18.40;49.80
51815;DHT22;37874;53.158;6.766;2023-04-25T08:59:11;18.40;50.20
51815;DHT22;37874;53.158;6.766;2023-04-25T09:01:37;18.50;49.50
51815;DHT22;37874;53.158;6.766;2023-04-25T09:04:03;18.50;49.50
51815;DHT22;37874;53.158;6.766;2023-04-25T09:06:29;18.50;48.90
51815;DHT22;37874;53.158;6.766;2023-04-25T09:09:03;18.40;49.30
51815;DHT22;37874;53.158;6.766;2023-04-25T09:11:30;18.40;49.30
51815;DHT22;37874;53.158;6.766;2023-04-25T09:14:16;18.60;49.30
51815;DHT22;37874;53.158;6.766;2023-04-25T09:19:30;18.40;49.20
51815;DHT22;37874;53.158;6.766;2023-04-25T09:21:57;18.40;49.30
51815;DHT22;37874;53.158;6.766;2023-04-25T09:24:36;18.40;48.90
51815;DHT22;37874;53.158;6.766;2023-04-25T09:27:06;18.40;49.60
51815;DHT22;37874;53.158;6.766;2023-04-25T09:29:36;18.40;49.60
51815;DHT22;37874;53.158;6.766;2023-04-25T09:32:19;18.40;49.60
51815;DHT22;37874;53.158;6.766;2023-04-25T09:34:56;18.40;49.20
51815;DHT22;37874;53.158;6.766;2023-04-25T09:37:26;18.40;49.30
51815;DHT22;37874;53.158;6.766;2023-04-25T09:39:59;18.50;49.40
51815;DHT22;37874;53.158;6.766;2023-04-25T09:42:28;18.50;49.70
51815;DHT22;37874;53.158;6.766;2023-04-25T09:44:55;18.60;49.80
51815;DHT22;37874;53.158;6.766;2023-04-25T09:47:23;18.50;49.80
51815;DHT22;37874;53.158;6.766;2023-04-25T09:49:50;18.60;49.90
51815;DHT22;37874;53.158;6.766;2023-04-25T09:52:18;18.60;49.80
51815;DHT22;37874;53.158;6.766;2023-04-25T09:54:46;18.60;49.70
51815;DHT22;37874;53.158;6.766;2023-04-25T09:57:20;18.60;49.70
51815;DHT22;37874;53.158;6.766;2023-04-25T09:59:51;18.50;49.60
51815;DHT22;37874;53.158;6.766;2023-04-25T10:02:19;18.60;49.60
51815;DHT22;37874;53.158;6.766;2023-04-25T10:04:48;18.60;49.40
51815;DHT22;37874;53.158;6.766;2023-04-25T10:07:16;18.60;49.70
51815;DHT22;37874;53.158;6.766;2023-04-25T10:09:44;18.60;49.50
51815;DHT22;37874;53.158;6.766;2023-04-25T10:12:12;18.60;49.50
51815;DHT22;37874;53.158;6.766;2023-04-25T10:14:38;18.60;49.40
51815;DHT22;37874;53.158;6.766;2023-04-25T10:17:05;18.60;49.30
51815;DHT22;37874;53.158;6.766;2023-04-25T10:19:32;18.50;49.20
51815;DHT22;37874;53.158;6.766;2023-04-25T10:22:07;18.50;49.50
51815;DHT22;37874;53.158;6.766;2023-04-25T10:24:35;18.50;49.10
51815;DHT22;37874;53.158;6.766;2023-04-25T10:27:02;18.60;49.40
51815;DHT22;37874;53.158;6.766;2023-04-25T10:29:28;18.60;49.50
51815;DHT22;37874;53.158;6.766;2023-04-25T10:31:53;18.50;49.30
51815;DHT22;37874;53.158;6.766;2023-04-25T10:34:24;18.60;49.50
51815;DHT22;37874;53.158;6.766;2023-04-25T10:36:53;18.60;49.30
51815;DHT22;37874;53.158;6.766;2023-04-25T10:39:26;19.10;50.00
51815;DHT22;37874;53.158;6.766;2023-04-25T10:41:57;18.70;49.90
51815;DHT22;37874;53.158;6.766;2023-04-25T10:44:26;18.70;50.00
51815;DHT22;37874;53.158;6.766;2023-04-25T10:46:55;18.70;50.20
51815;DHT22;37874;53.158;6.766;2023-04-25T10:52:25;18.70;50.10
51815;DHT22;37874;53.158;6.766;2023-04-25T10:54:53;18.70;50.20
51815;DHT22;37874;53.158;6.766;2023-04-25T10:57:31;18.60;50.10
51815;DHT22;37874;53.158;6.766;2023-04-25T10:59:59;18.80;50.10
51815;DHT22;37874;53.158;6.766;2023-04-25T11:02:28;18.70;50.00
51815;DHT22;37874;53.158;6.766;2023-04-25T11:04:54;18.70;50.70
51815;DHT22;37874;53.158;6.766;2023-04-25T11:09:46;18.70;49.50
51815;DHT22;37874;53.158;6.766;2023-04-25T11:12:12;18.70;49.40
51815;DHT22;37874;53.158;6.766;2023-04-25T11:14:38;18.70;49.00
51815;DHT22;37874;53.158;6.766;2023-04-25T11:17:04;18.70;49.50
51815;DHT22;37874;53.158;6.766;2023-04-25T11:19:31;18.70;49.50
51815;DHT22;37874;53.158;6.766;2023-04-25T11:22:00;18.60;49.10
51815;DHT22;37874;53.158;6.766;2023-04-25T11:24:31;18.70;49.40
51815;DHT22;37874;53.158;6.766;2023-04-25T11:27:02;18.60;49.30
51815;DHT22;37874;53.158;6.766;2023-04-25T11:29:32;18.80;49.80
51815;DHT22;37874;53.158;6.766;2023-04-25T11:31:58;18.70;49.70
51815;DHT22;37874;53.158;6.766;2023-04-25T11:34:24;18.60;49.40
51815;DHT22;37874;53.158;6.766;2023-04-25T11:36:51;18.70;49.50
51815;DHT22;37874;53.158;6.766;2023-04-25T11:39:18;18.70;49.60
51815;DHT22;37874;53.158;6.766;2023-04-25T11:41:45;18.90;49.20
51815;DHT22;37874;53.158;6.766;2023-04-25T11:44:10;18.70;49.10
51815;DHT22;37874;53.158;6.766;2023-04-25T11:46:36;18.70;49.30
51815;DHT22;37874;53.158;6.766;2023-04-25T11:49:02;18.80;49.00
51815;DHT22;37874;53.158;6.766;2023-04-25T11:51:29;18.80;49.10
51815;DHT22;37874;53.158;6.766;2023-04-25T11:53:55;18.90;49.10
51815;DHT22;37874;53.158;6.766;2023-04-25T11:56:21;18.90;49.10
51815;DHT22;37874;53.158;6.766;2023-04-25T11:58:57;18.90;48.80
51815;DHT22;37874;53.158;6.766;2023-04-25T12:01:47;18.90;48.90
51815;DHT22;37874;53.158;6.766;2023-04-25T12:04:15;19.00;49.10
51815;DHT22;37874;53.158;6.766;2023-04-25T12:06:42;19.10;48.70
51815;DHT22;37874;53.158;6.766;2023-04-25T12:09:12;19.20;48.80
51815;DHT22;37874;53.158;6.766;2023-04-25T12:11:46;19.20;48.80
51815;DHT22;37874;53.158;6.766;2023-04-25T12:14:12;19.20;48.80
51815;DHT22;37874;53.158;6.766;2023-04-25T12:16:46;19.20;48.90
51815;DHT22;37874;53.158;6.766;2023-04-25T12:19:16;19.20;48.60
51815;DHT22;37874;53.158;6.766;2023-04-25T12:21:43;19.30;48.90
51815;DHT22;37874;53.158;6.766;2023-04-25T12:24:17;19.30;48.60
51815;DHT22;37874;53.158;6.766;2023-04-25T12:27:04;19.20;48.50
51815;DHT22;37874;53.158;6.766;2023-04-25T12:29:32;19.30;48.30
51815;DHT22;37874;53.158;6.766;2023-04-25T12:31:58;19.30;49.30
51815;DHT22;37874;53.158;6.766;2023-04-25T12:34:24;19.30;48.20
51815;DHT22;37874;53.158;6.766;2023-04-25T12:36:51;19.50;48.40
51815;DHT22;37874;53.158;6.766;2023-04-25T12:39:22;19.30;48.50
51815;DHT22;37874;53.158;6.766;2023-04-25T12:41:51;19.30;48.50
51815;DHT22;37874;53.158;6.766;2023-04-25T12:44:19;19.30;48.80
51815;DHT22;37874;53.158;6.766;2023-04-25T12:46:45;19.40;48.90
51815;DHT22;37874;53.158;6.766;2023-04-25T12:49:10;19.40;48.50
51815;DHT22;37874;53.158;6.766;2023-04-25T12:51:37;19.40;48.50
51815;DHT22;37874;53.158;6.766;2023-04-25T12:54:04;19.40;48.10
51815;DHT22;37874;53.158;6.766;2023-04-25T12:56:31;19.40;48.20
51815;DHT22;37874;53.158;6.766;2023-04-25T12:58:57;19.40;48.30
51815;DHT22;37874;53.158;6.766;2023-04-25T13:01:23;19.60;48.40
51815;DHT22;37874;53.158;6.766;2023-04-25T13:03:50;19.60;48.10
51815;DHT22;37874;53.158;6.766;2023-04-25T13:06:16;19.70;47.80
51815;DHT22;37874;53.158;6.766;2023-04-25T13:08:42;19.70;47.60
51815;DHT22;37874;53.158;6.766;2023-04-25T13:11:08;19.60;48.00
51815;DHT22;37874;53.158;6.766;2023-04-25T13:13:34;19.70;48.00
51815;DHT22;37874;53.158;6.766;2023-04-25T13:16:01;19.60;48.20
51815;DHT22;37874;53.158;6.766;2023-04-25T13:18:30;19.70;47.60
51815;DHT22;37874;53.158;6.766;2023-04-25T13:20:57;19.70;47.60
51815;DHT22;37874;53.158;6.766;2023-04-25T13:23:24;19.80;47.80
51815;DHT22;37874;53.158;6.766;2023-04-25T13:25:50;20.00;47.50
51815;DHT22;37874;53.158;6.766;2023-04-25T13:28:16;20.10;47.10
51815;DHT22;37874;53.158;6.766;2023-04-25T13:30:42;20.20;47.10
51815;DHT22;37874;53.158;6.766;2023-04-25T13:33:07;20.20;47.00
51815;DHT22;37874;53.158;6.766;2023-04-25T13:35:34;20.40;46.60
51815;DHT22;37874;53.158;6.766;2023-04-25T13:38:00;20.60;46.20
51815;DHT22;37874;53.158;6.766;2023-04-25T13:40:26;20.80;45.60
51815;DHT22;37874;53.158;6.766;2023-04-25T13:42:52;21.00;45.30
51815;DHT22;37874;53.158;6.766;2023-04-25T13:45:19;21.20;44.90
51815;DHT22;37874;53.158;6.766;2023-04-25T13:47:45;21.30;44.70
51815;DHT22;37874;53.158;6.766;2023-04-25T13:50:10;21.20;44.30
51815;DHT22;37874;53.158;6.766;2023-04-25T13:52:36;21.10;45.00
51815;DHT22;37874;53.158;6.766;2023-04-25T13:55:02;21.10;44.80
51815;DHT22;37874;53.158;6.766;2023-04-25T13:57:30;21.10;44.60
51815;DHT22;37874;53.158;6.766;2023-04-25T13:59:56;21.20;44.60
51815;DHT22;37874;53.158;6.766;2023-04-25T14:02:21;21.30;44.10
51815;DHT22;37874;53.158;6.766;2023-04-25T14:04:47;21.50;44.10
51815;DHT22;37874;53.158;6.766;2023-04-25T14:07:13;21.60;43.90
51815;DHT22;37874;53.158;6.766;2023-04-25T14:09:41;21.70;43.30
51815;DHT22;37874;53.158;6.766;2023-04-25T14:12:07;21.50;43.70
51815;DHT22;37874;53.158;6.766;2023-04-25T14:14:32;21.40;44.10
51815;DHT22;37874;53.158;6.766;2023-04-25T14:16:58;21.40;44.30
51815;DHT22;37874;53.158;6.766;2023-04-25T14:19:24;21.50;44.20
51815;DHT22;37874;53.158;6.766;2023-04-25T14:21:50;21.70;43.90
51815;DHT22;37874;53.158;6.766;2023-04-25T14:24:15;21.70;43.60
51815;DHT22;37874;53.158;6.766;2023-04-25T14:26:41;21.90;43.50
51815;DHT22;37874;53.158;6.766;2023-04-25T14:29:09;22.00;43.40
51815;DHT22;37874;53.158;6.766;2023-04-25T14:31:37;21.90;43.10
51815;DHT22;37874;53.158;6.766;2023-04-25T14:34:03;21.80;43.40
51815;DHT22;37874;53.158;6.766;2023-04-25T14:36:29;21.60;43.90
51815;DHT22;37874;53.158;6.766;2023-04-25T14:38:56;21.40;44.40
51815;DHT22;37874;53.158;6.766;2023-04-25T14:41:22;21.30;44.50
51815;DHT22;37874;53.158;6.766;2023-04-25T14:43:48;21.30;44.70
51815;DHT22;37874;53.158;6.766;2023-04-25T14:46:14;21.20;45.10
51815;DHT22;37874;53.158;6.766;2023-04-25T14:48:40;21.50;45.10
51815;DHT22;37874;53.158;6.766;2023-04-25T14:51:05;21.50;44.90
51815;DHT22;37874;53.158;6.766;2023-04-25T14:53:31;21.60;44.60
51815;DHT22;37874;53.158;6.766;2023-04-25T14:55:57;21.70;44.40
51815;DHT22;37874;53.158;6.766;2023-04-25T14:58:23;21.70;44.30
51815;DHT22;37874;53.158;6.766;2023-04-25T15:00:48;21.70;44.00
51815;DHT22;37874;53.158;6.766;2023-04-25T15:03:14;21.60;44.10
51815;DHT22;37874;53.158;6.766;2023-04-25T15:05:42;21.40;44.30
51815;DHT22;37874;53.158;6.766;2023-04-25T15:08:07;21.30;44.30
51815;DHT22;37874;53.158;6.766;2023-04-25T15:10:33;21.20;44.60
51815;DHT22;37874;53.158;6.766;2023-04-25T15:12:59;21.10;45.20
51815;DHT22;37874;53.158;6.766;2023-04-25T15:15:25;21.10;45.50
51815;DHT22;37874;53.158;6.766;2023-04-25T15:17:50;21.20;45.70
51815;DHT22;37874;53.158;6.766;2023-04-25T15:20:16;21.20;46.10
51815;DHT22;37874;53.158;6.766;2023-04-25T15:22:43;21.30;45.50
51815;DHT22;37874;53.158;6.766;2023-04-25T15:25:10;21.40;45.30
51815;DHT22;37874;53.158;6.766;2023-04-25T15:27:36;21.50;45.20
51815;DHT22;37874;53.158;6.766;2023-04-25T15:30:12;21.50;45.00
51815;DHT22;37874;53.158;6.766;2023-04-25T15:32:46;21.40;45.00
51815;DHT22;37874;53.158;6.766;2023-04-25T15:35:13;21.40;45.10
51815;DHT22;37874;53.158;6.766;2023-04-25T15:37:38;21.40;45.20
51815;DHT22;37874;53.158;6.766;2023-04-25T15:40:11;21.40;45.30
51815;DHT22;37874;53.158;6.766;2023-04-25T15:42:46;21.30;45.40
51815;DHT22;37874;53.158;6.766;2023-04-25T15:45:14;21.30;45.50
51815;DHT22;37874;53.158;6.766;2023-04-25T15:47:40;21.40;45.80
51815;DHT22;37874;53.158;6.766;2023-04-25T15:50:08;21.50;45.10
51815;DHT22;37874;53.158;6.766;2023-04-25T15:52:34;21.60;45.60
51815;DHT22;37874;53.158;6.766;2023-04-25T15:55:01;21.70;45.00
51815;DHT22;37874;53.158;6.766;2023-04-25T15:57:29;21.70;44.60
51815;DHT22;37874;53.158;6.766;2023-04-25T15:59:54;21.80;44.70
51815;DHT22;37874;53.158;6.766;2023-04-25T16:02:21;21.80;44.80
51815;DHT22;37874;53.158;6.766;2023-04-25T16:04:46;21.90;44.60
51815;DHT22;37874;53.158;6.766;2023-04-25T16:07:13;22.00;44.20
51815;DHT22;37874;53.158;6.766;2023-04-25T16:09:39;22.10;44.60
51815;DHT22;37874;53.158;6.766;2023-04-25T16:12:05;22.10;44.00
51815;DHT22;37874;53.158;6.766;2023-04-25T16:14:32;22.10;44.00
51815;DHT22;37874;53.158;6.766;2023-04-25T16:16:57;22.00;44.20
51815;DHT22;37874;53.158;6.766;2023-04-25T16:19:23;21.90;44.30
51815;DHT22;37874;53.158;6.766;2023-04-25T16:21:49;21.90;44.50
51815;DHT22;37874;53.158;6.766;2023-04-25T16:24:14;22.00;44.70
51815;DHT22;37874;53.158;6.766;2023-04-25T16:26:40;22.00;44.60
51815;DHT22;37874;53.158;6.766;2023-04-25T16:29:07;21.90;44.50
51815;DHT22;37874;53.158;6.766;2023-04-25T16:31:33;22.00;44.20
51815;DHT22;37874;53.158;6.766;2023-04-25T16:34:01;22.10;43.90
51815;DHT22;37874;53.158;6.766;2023-04-25T16:36:26;22.20;43.90
51815;DHT22;37874;53.158;6.766;2023-04-25T16:38:52;22.30;43.80
51815;DHT22;37874;53.158;6.766;2023-04-25T16:41:18;22.20;43.50
51815;DHT22;37874;53.158;6.766;2023-04-25T16:43:44;22.30;43.40
51815;DHT22;37874;53.158;6.766;2023-04-25T16:46:09;22.30;43.50
51815;DHT22;37874;53.158;6.766;2023-04-25T16:48:35;22.40;43.50
51815;DHT22;37874;53.158;6.766;2023-04-25T16:51:01;22.30;43.30
51815;DHT22;37874;53.158;6.766;2023-04-25T16:53:27;22.30;43.40
51815;DHT22;37874;53.158;6.766;2023-04-25T16:55:53;22.30;43.40
51815;DHT22;37874;53.158;6.766;2023-04-25T16:58:19;22.30;43.80
51815;DHT22;37874;53.158;6.766;2023-04-25T17:00:44;22.10;43.50
51815;DHT22;37874;53.158;6.766;2023-04-25T17:03:12;22.10;43.80
51815;DHT22;37874;53.158;6.766;2023-04-25T17:05:37;22.00;44.10
51815;DHT22;37874;53.158;6.766;2023-04-25T17:08:03;21.90;44.30
51815;DHT22;37874;53.158;6.766;2023-04-25T17:10:29;21.90;44.50
51815;DHT22;37874;53.158;6.766;2023-04-25T17:12:55;21.80;44.60
51815;DHT22;37874;53.158;6.766;2023-04-25T17:15:21;21.80;44.90
51815;DHT22;37874;53.158;6.766;2023-04-25T17:17:47;21.70;44.90
51815;DHT22;37874;53.158;6.766;2023-04-25T17:20:12;21.70;45.00
51815;DHT22;37874;53.158;6.766;2023-04-25T17:22:38;21.60;45.50
51815;DHT22;37874;53.158;6.766;2023-04-25T17:25:05;21.60;45.30
51815;DHT22;37874;53.158;6.766;2023-04-25T17:27:32;21.50;45.40
51815;DHT22;37874;53.158;6.766;2023-04-25T17:29:58;21.40;45.70
51815;DHT22;37874;53.158;6.766;2023-04-25T17:32:24;21.30;45.80
51815;DHT22;37874;53.158;6.766;2023-04-25T17:34:50;21.20;46.00
51815;DHT22;37874;53.158;6.766;2023-04-25T17:37:16;21.10;45.70
51815;DHT22;37874;53.158;6.766;2023-04-25T17:39:43;21.10;46.20
51815;DHT22;37874;53.158;6.766;2023-04-25T17:42:09;21.00;46.30
51815;DHT22;37874;53.158;6.766;2023-04-25T17:44:39;21.00;46.30
51815;DHT22;37874;53.158;6.766;2023-04-25T17:47:05;20.90;46.30
51815;DHT22;37874;53.158;6.766;2023-04-25T17:49:31;20.90;46.50
51815;DHT22;37874;53.158;6.766;2023-04-25T17:51:58;20.80;47.30
51815;DHT22;37874;53.158;6.766;2023-04-25T17:54:23;20.80;46.70
51815;DHT22;37874;53.158;6.766;2023-04-25T17:56:50;20.80;47.00
51815;DHT22;37874;53.158;6.766;2023-04-25T17:59:16;20.70;47.00
51815;DHT22;37874;53.158;6.766;2023-04-25T18:01:42;20.70;47.10
51815;DHT22;37874;53.158;6.766;2023-04-25T18:04:08;20.60;46.60
51815;DHT22;37874;53.158;6.766;2023-04-25T18:06:34;20.70;46.80
51815;DHT22;37874;53.158;6.766;2023-04-25T18:09:00;20.60;46.90
51815;DHT22;37874;53.158;6.766;2023-04-25T18:11:28;20.50;47.00
51815;DHT22;37874;53.158;6.766;2023-04-25T18:13:54;20.60;46.90
51815;DHT22;37874;53.158;6.766;2023-04-25T18:16:20;20.50;47.00
51815;DHT22;37874;53.158;6.766;2023-04-25T18:18:47;20.60;47.20
51815;DHT22;37874;53.158;6.766;2023-04-25T18:21:18;20.40;47.40
51815;DHT22;37874;53.158;6.766;2023-04-25T18:23:44;20.40;47.20
51815;DHT22;37874;53.158;6.766;2023-04-25T18:26:10;20.30;47.40
51815;DHT22;37874;53.158;6.766;2023-04-25T18:28:36;20.30;47.50
51815;DHT22;37874;53.158;6.766;2023-04-25T18:31:02;20.30;47.70
51815;DHT22;37874;53.158;6.766;2023-04-25T18:33:28;20.20;47.80
51815;DHT22;37874;53.158;6.766;2023-04-25T18:35:54;20.20;48.00
51815;DHT22;37874;53.158;6.766;2023-04-25T18:38:20;20.10;48.00
51815;DHT22;37874;53.158;6.766;2023-04-25T18:40:46;20.10;48.50
51815;DHT22;37874;53.158;6.766;2023-04-25T18:43:13;20.00;48.50
51815;DHT22;37874;53.158;6.766;2023-04-25T18:45:38;20.00;48.60
51815;DHT22;37874;53.158;6.766;2023-04-25T18:48:04;20.00;48.50
51815;DHT22;37874;53.158;6.766;2023-04-25T18:50:30;19.90;48.60
51815;DHT22;37874;53.158;6.766;2023-04-25T18:52:58;19.90;48.90
51815;DHT22;37874;53.158;6.766;2023-04-25T18:55:25;19.90;49.00
51815;DHT22;37874;53.158;6.766;2023-04-25T18:57:50;19.80;49.10
51815;DHT22;37874;53.158;6.766;2023-04-25T19:00:16;19.80;48.70
51815;DHT22;37874;53.158;6.766;2023-04-25T19:02:42;19.80;48.90
51815;DHT22;37874;53.158;6.766;2023-04-25T19:05:07;19.70;48.50
51815;DHT22;37874;53.158;6.766;2023-04-25T19:07:35;19.70;48.60
51815;DHT22;37874;53.158;6.766;2023-04-25T19:10:04;19.70;48.70
51815;DHT22;37874;53.158;6.766;2023-04-25T19:12:30;19.60;48.70
51815;DHT22;37874;53.158;6.766;2023-04-25T19:14:57;19.60;49.00
51815;DHT22;37874;53.158;6.766;2023-04-25T19:17:23;19.60;48.80
51815;DHT22;37874;53.158;6.766;2023-04-25T19:19:49;19.50;48.80
51815;DHT22;37874;53.158;6.766;2023-04-25T19:22:15;19.50;49.10
51815;DHT22;37874;53.158;6.766;2023-04-25T19:24:40;19.50;49.20
51815;DHT22;37874;53.158;6.766;2023-04-25T19:27:06;19.50;49.30
51815;DHT22;37874;53.158;6.766;2023-04-25T19:29:31;19.50;48.80
51815;DHT22;37874;53.158;6.766;2023-04-25T19:31:58;19.40;49.20
51815;DHT22;37874;53.158;6.766;2023-04-25T19:34:24;19.40;49.30
51815;DHT22;37874;53.158;6.766;2023-04-25T19:36:50;19.40;48.90
51815;DHT22;37874;53.158;6.766;2023-04-25T19:39:19;19.30;49.60